Latest Weather Observations for Scone Airport

IDN60801

Issued at 10:33 am EDT Wednesday 1 April 2015 (issued every 30 minutes, with the page automatically refreshed every 10 minutes)

About weather observations | Map of weather stations | Latest weather observations for NSW | Other Formats
Station Details ID: 061363 Name: SCONE AIRPORT AWS Lat: -32.03 Lon: 150.83 Height: 221.4 m
Data from the previous 72 hours. | See also: Recent months at Scone Airport
Date/Time
EDT
Temp
°C
App
Temp
°C
Dew
Point
Rel
Hum
%
Delta-T
°C
Wind Press
QNH
hPa
Press
MSL
hPa
Rain
since 9 am
mm
Dir
 
Spd
km/h
Gust
km/h
Spd
kts
Gust
kts
01/10:30am 21.9 22.0 14.0 61 4.6 NW 6 11 3 6 1023.9 1023.1 0.0
01/10:00am 21.1 21.3 14.3 65 4.0 NE 6 9 3 5 1024.4 1023.6 0.0
01/09:30am 20.3 20.7 14.7 70 3.3 ENE 6 11 3 6 1024.6 1023.8 0.0
01/09:00am 19.9 20.4 15.5 76 2.6 ENE 7 13 4 7 1024.9 1024.1 0.4
01/08:30am 18.7 20.2 15.8 83 1.7 ESE 2 6 1 3 1024.9 1024.1 0.4
01/08:00am 17.3 19.4 16.3 94 0.6 CALM 0 0 0 0 1024.7 1023.9 0.4
01/07:30am 16.7 18.5 15.6 93 0.6 CALM 0 0 0 0 1024.4 1023.6 0.4
01/07:00am 16.9 18.8 15.8 93 0.6 CALM 0 0 0 0 1024.3 1023.5 0.4
01/06:30am 17.0 19.0 15.9 93 0.7 CALM 0 0 0 0 1024.1 1023.3 0.4
01/06:00am 17.0 17.8 15.9 93 0.7 SE 6 9 3 5 1023.5 1022.7 0.4
01/05:30am 17.2 17.9 16.1 93 0.7 SSE 7 9 4 5 1023.2 1022.4 0.4
01/05:00am 17.1 17.4 16.1 94 0.6 SSW 9 11 5 6 1023.0 1022.2 0.4
01/04:30am 17.3 19.3 16.0 92 0.8 CALM 0 0 0 0 1022.6 1021.8 0.4
01/04:00am 17.2 18.9 16.2 94 0.6 ESE 2 9 1 5 1022.9 1022.1 0.4
01/03:30am 17.3 19.4 16.2 93 0.7 CALM 0 0 0 0 1023.1 1022.3 0.4
01/03:00am 17.3 19.3 16.0 92 0.8 CALM 0 0 0 0 1023.5 1022.7 0.4
01/02:30am 17.3 19.0 16.2 93 0.7 S 2 7 1 4 1023.9 1023.1 0.4
01/02:00am 17.3 19.4 16.2 93 0.7 CALM 0 0 0 0 1024.3 1023.5 0.4
01/01:30am 17.1 18.4 16.1 94 0.6 ENE 4 7 2 4 1024.4 1023.6 0.4
01/01:00am 16.6 17.2 15.3 92 0.8 SE 6 9 3 5 1024.5 1023.7 0.4
01/12:30am 17.2 17.4 15.7 91 0.9 S 9 13 5 7 1024.5 1023.7 0.4
01/12:00am 17.2 16.6 15.7 91 0.9 S 13 17 7 9 1024.5 1023.7 0.4
 
Date/Time
EDT
Temp
°C
App
Temp
°C
Dew
Point
Rel
Hum
%
Delta-T
°C
Wind Press
QNH
hPa
Press
MSL
hPa
Rain
since 9 am
mm
Dir
 
Spd
km/h
Gust
km/h
Spd
kts
Gust
kts
31/11:30pm 17.3 16.8 15.8 91 0.9 S 13 17 7 9 1024.5 1023.7 0.4
31/11:00pm 17.5 16.2 15.7 89 1.1 SSE 17 20 9 11 1024.5 1023.7 0.4
31/10:30pm 17.8 16.5 15.8 88 1.2 S 17 20 9 11 1024.3 1023.5 0.4
31/10:00pm 17.8 16.3 15.4 86 1.4 S 17 20 9 11 1024.3 1023.5 0.4
31/09:30pm 18.1 17.5 15.7 86 1.4 S 13 17 7 9 1024.0 1023.2 0.4
31/09:00pm 18.4 17.7 15.5 83 1.7 S 13 15 7 8 1023.9 1023.1 0.4
31/08:30pm 19.1 18.0 15.4 79 2.2 S 15 20 8 11 1023.6 1022.8 0.4
31/08:00pm 19.6 17.6 15.5 77 2.4 SSE 20 24 11 13 1023.5 1022.7 0.4
31/07:30pm 20.1 18.1 15.5 75 2.8 SSE 20 26 11 14 1023.5 1022.7 0.4
31/07:00pm 20.3 18.4 15.3 73 3.0 SE 19 26 10 14 1023.1 1022.3 0.4
31/06:30pm 21.0 18.4 14.9 68 3.6 SE 22 32 12 17 1022.6 1021.8 0.4
31/06:00pm 21.9 17.6 14.5 63 4.4 SE 30 39 16 21 1022.5 1021.7 0.4
31/05:30pm 22.4 18.6 14.8 62 4.5 S 28 35 15 19 1022.1 1021.2 0.4
31/05:00pm 23.3 19.2 14.8 59 5.1 S 30 41 16 22 1022.0 1021.1 0.4
31/04:30pm 23.3 18.6 14.3 57 5.3 SSE 32 39 17 21 1021.9 1021.0 0.4
31/04:00pm 23.8 21.5 14.2 55 5.7 S 19 30 10 16 1022.0 1021.1 0.4
31/03:30pm 23.7 21.0 14.7 57 5.4 SSE 22 32 12 17 1022.4 1021.6 0.4
31/03:00pm 23.7 21.8 15.2 59 5.1 SSE 19 28 10 15 1022.6 1021.8 0.4
31/02:30pm 22.9 20.6 15.7 64 4.4 SSE 22 30 12 16 1023.0 1022.2 0.4
31/02:00pm 23.1 20.8 15.7 63 4.5 SSE 22 28 12 15 1023.2 1022.4 0.4
31/01:30pm 22.8 20.8 15.4 63 4.5 SSE 20 24 11 13 1023.7 1022.9 0.4
31/01:00pm 21.9 19.7 15.0 65 4.1 S 20 28 11 15 1024.2 1023.4 0.4
31/12:30pm 21.5 19.9 16.0 71 3.3 SSE 19 26 10 14 1024.9 1024.1 0.4
31/12:00pm 20.1 19.4 15.5 75 2.7 SSE 13 22 7 12 1025.4 1024.6 0.4
31/11:30am 19.8 18.8 15.7 77 2.5 SSE 15 19 8 10 1025.7 1024.9 0.2
31/11:00am 19.4 19.0 16.1 81 2.0 SSE 13 19 7 10 1025.9 1025.1 0.0
31/10:30am 19.2 17.9 15.9 81 2.0 SSE 17 20 9 11 1026.1 1025.2 0.0
31/10:00am 18.9 17.1 15.4 80 2.1 S 19 22 10 12 1026.1 1025.2 0.0
31/09:30am 18.8 17.4 15.5 81 2.0 SSE 17 22 9 12 1025.8 1025.0 0.0
31/09:00am 18.7 17.4 15.8 83 1.7 S 17 22 9 12 1025.5 1024.7 0.4
31/08:30am 18.2 17.0 16.2 88 1.2 S 17 22 9 12 1025.1 1024.3 0.4
31/08:00am 16.8 17.3 16.5 98 0.2 SSE 9 13 5 7 1024.7 1023.9 0.4
31/07:30am 15.7 16.1 15.4 98 0.2 W 7 9 4 5 1024.3 1023.5 0.4
31/07:00am 15.6 17.3 15.3 98 0.2 CALM 0 0 0 0 1024.1 1023.3 0.4
31/06:30am 15.3 16.9 14.8 97 0.3 CALM 0 0 0 0 1023.8 1023.0 0.4
31/06:00am 15.1 16.6 14.6 97 0.3 CALM 0 0 0 0 1023.5 1022.7 0.4
31/05:30am 15.1 16.2 14.6 97 0.3 SE 2 7 1 4 1023.3 1022.5 0.4
31/05:00am 15.4 17.0 14.9 97 0.3 CALM 0 0 0 0 1023.1 1022.3 0.4
31/04:30am 15.4 17.0 14.9 97 0.3 CALM 0 0 0 0 1023.1 1022.3 0.4
31/04:00am 15.7 17.4 15.2 97 0.3 CALM 0 0 0 0 1023.2 1022.4 0.4
31/03:30am 15.6 17.2 15.0 96 0.3 CALM 0 0 0 0 1023.3 1022.5 0.4
31/03:00am 16.1 17.9 15.6 97 0.3 CALM 0 0 0 0 1023.2 1022.4 0.4
31/02:30am 16.0 17.7 15.2 95 0.5 CALM 0 0 0 0 1023.5 1022.7 0.4
31/02:00am 16.1 17.7 15.0 93 0.6 CALM 0 0 0 0 1023.8 1023.0 0.4
31/01:30am 16.9 18.7 15.6 92 0.8 CALM 0 0 0 0 1024.1 1023.3 0.4
31/01:00am 17.3 18.2 16.2 93 0.7 N 6 7 3 4 1024.1 1023.3 0.4
31/12:30am 17.3 18.6 16.2 93 0.7 WSW 4 6 2 3 1024.0 1023.2 0.4
31/12:00am 17.4 19.3 15.7 90 1.0 CALM 0 0 0 0 1024.3 1023.5 0.4
 
Date/Time
EDT
Temp
°C
App
Temp
°C
Dew
Point
Rel
Hum
%
Delta-T
°C
Wind Press
QNH
hPa
Press
MSL
hPa
Rain
since 9 am
mm
Dir
 
Spd
km/h
Gust
km/h
Spd
kts
Gust
kts
30/11:30pm 17.7 19.2 15.7 88 1.2 NNW 2 7 1 4 1024.3 1023.5 0.4
30/11:00pm 17.9 19.4 15.7 87 1.3 SW 2 7 1 4 1024.3 1023.5 0.4
30/10:30pm 17.8 18.7 16.0 89 1.1 SW 6 7 3 4 1024.3 1023.5 0.4
30/10:00pm 17.9 18.8 16.2 90 1.0 W 6 9 3 5 1024.2 1023.4 0.4
30/09:30pm 18.3 20.3 16.1 87 1.3 CALM 0 0 0 0 1023.8 1023.0 0.4
30/09:00pm 18.4 20.0 16.0 86 1.4 NE 2 7 1 4 1023.8 1023.0 0.4
30/08:30pm 19.0 20.2 15.9 82 1.9 NW 4 7 2 4 1023.5 1022.7 0.2
30/08:00pm 19.6 19.1 14.8 74 2.8 NW 11 13 6 7 1023.3 1022.5 0.0
30/07:30pm 19.7 20.0 14.5 72 3.1 NNW 6 7 3 4 1022.8 1022.0 0.0
30/07:00pm 19.8 19.6 14.6 72 3.0 NW 9 11 5 6 1022.7 1021.9 0.0
30/06:30pm 20.5 18.8 14.6 69 3.5 NW 17 24 9 13 1022.4 1021.6 0.0
30/06:00pm 22.5 22.7 14.6 61 4.7 SSE 7 19 4 10 1022.0 1021.1 0.0
30/05:30pm 23.5 20.3 14.2 56 5.5 S 24 32 13 17 1021.2 1020.4 0.0
30/05:00pm 25.4 23.4 8.8 35 9.0 ESE 9 17 5 9 1020.7 1019.9 0.0
30/04:30pm 25.3 22.9 8.7 35 9.1 SE 11 15 6 8 1020.3 1019.5 0.0
30/04:00pm 25.1 22.5 9.4 37 8.6 ESE 13 17 7 9 1020.4 1019.6 0.0
30/03:30pm 25.3 22.4 8.3 34 9.2 E 13 17 7 9 1020.6 1019.8 0.0
30/03:00pm 25.8 23.1 8.8 34 9.3 ESE 13 17 7 9 1020.7 1019.9 0.0
30/02:30pm 26.3 23.4 8.3 32 9.8 E 13 19 7 10 1020.9 1020.1 0.0
30/02:00pm 26.5 24.8 8.5 32 9.8 SE 7 13 4 7 1021.1 1020.3 0.0
30/01:30pm 26.1 24.2 7.7 31 9.9 ESE 7 13 4 7 1021.7 1020.8 0.0
30/01:00pm 27.2 25.7 10.4 35 9.5 NE 9 15 5 8 1022.1 1021.2 0.0
30/12:30pm 26.3 25.1 11.6 40 8.5 NE 9 15 5 8 1022.7 1021.9 0.0
30/12:00pm 24.5 23.7 12.8 48 6.8 NE 9 15 5 8 1023.3 1022.5 0.0
30/11:30am 23.0 23.0 14.3 58 5.2 NW 7 13 4 7 1023.6 1022.8 0.0
30/11:00am 21.1 21.6 15.6 71 3.3 WNW 7 11 4 6 1024.0 1023.2 0.0
30/10:30am 20.2 20.7 15.6 75 2.8 NNE 7 9 4 5 1024.1 1023.3 0.0
30/10:00am 19.7 20.0 15.1 75 2.7 NNW 7 9 4 5 1024.5 1023.7 0.0
30/09:30am 19.4 19.9 15.1 76 2.5 W 6 7 3 4 1024.3 1023.5 0.0
30/09:00am 18.6 20.3 15.1 80 2.1 CALM 0 6 0 3 1024.5 1023.7 0.0
30/08:30am 17.7 17.9 14.8 83 1.7 NE 7 11 4 6 1024.2 1023.4 0.0
30/08:00am 17.6 17.7 13.9 79 2.1 NE 6 9 3 5 1024.2 1023.4 0.0
30/07:30am 17.4 17.2 13.7 79 2.1 WNW 7 9 4 5 1023.7 1022.9 0.0
30/07:00am 17.5 17.5 14.2 81 1.9 NNW 7 13 4 7 1023.5 1022.7 0.0
30/06:30am 17.3 16.5 14.0 81 1.9 NE 11 13 6 7 1022.8 1022.0 0.0
30/06:00am 17.1 16.8 13.2 78 2.2 S 7 9 4 5 1022.3 1021.5 0.0
30/05:30am 17.3 16.8 12.8 75 2.5 WSW 7 7 4 4 1021.8 1020.9 0.0
30/05:00am 17.0 15.7 12.5 75 2.5 WNW 11 13 6 7 1021.7 1020.8 0.0
30/04:30am 17.2 16.6 13.5 79 2.1 N 9 11 5 6 1021.0 1020.2 0.0
30/04:00am 17.1 16.5 12.4 74 2.6 ESE 7 11 4 6 1021.0 1020.2 0.0
30/03:30am 16.4 16.4 11.3 72 2.8 NNW 2 7 1 4 1021.1 1020.3 0.0
30/03:00am 16.3 16.5 10.6 69 3.1 CALM 0 6 0 3 1021.4 1020.5 0.0
30/02:30am 15.9 16.3 11.3 74 2.5 CALM 0 7 0 4 1021.6 1020.7 0.0
30/02:00am 16.2 16.4 10.7 70 2.9 CALM 0 0 0 0 1021.6 1020.7 0.0
30/01:30am 16.1 16.6 11.5 74 2.5 CALM 0 0 0 0 1021.7 1020.8 0.0
30/01:00am 16.2 16.6 11.4 73 2.6 CALM 0 0 0 0 1021.9 1021.0 0.0
30/12:30am 16.2 16.6 11.2 72 2.7 CALM 0 0 0 0 1021.9 1021.0 0.0
30/12:00am 15.8 14.7 10.8 72 2.7 NNE 7 9 4 5 1022.0 1021.1 0.0
 
Date/Time
EDT
Temp
°C
App
Temp
°C
Dew
Point
Rel
Hum
%
Delta-T
°C
Wind Press
QNH
hPa
Press
MSL
hPa
Rain
since 9 am
mm
Dir
 
Spd
km/h
Gust
km/h
Spd
kts
Gust
kts
29/11:30pm 17.0 17.2 10.6 66 3.5 CALM 0 0 0 0 1021.8 1020.9 0.0
29/11:00pm 17.1 17.5 11.2 68 3.2 CALM 0 0 0 0 1022.0 1021.1 0.0
29/10:30pm 17.5 17.7 10.4 63 3.8 CALM 0 0 0 0 1022.1 1021.2 0.0
29/10:00pm 19.5 19.1 12.3 63 4.0 E 6 7 3 4 1021.8 1020.9 0.0
29/09:30pm 21.1 20.1 13.3 61 4.5 S 11 15 6 8 1021.4 1020.5 0.0
29/09:00pm 21.3 18.5 11.3 53 5.6 S 17 20 9 11 1020.9 1020.1 0.0
29/08:30pm 22.0 19.7 8.9 43 7.0 SSW 11 15 6 8 1020.6 1019.8 0.0
29/08:00pm 22.6 20.6 8.7 41 7.4 S 9 13 5 7 1020.5 1019.7 0.0
29/07:30pm 22.9 20.1 8.6 40 7.7 SSE 13 15 7 8 1020.1 1019.3 0.0
29/07:00pm 24.4 21.6 8.4 36 8.6 S 13 15 7 8 1019.8 1019.0 0.0
29/06:30pm 25.9 23.1 8.4 33 9.5 S 13 17 7 9 1019.6 1018.8 0.0
29/06:00pm 28.3 27.0 5.8 24 11.8 WSW 2 6 1 3 1019.4 1018.6 0.0
29/05:30pm 28.5 25.8 5.4 23 12.1 W 9 15 5 8 1019.4 1018.6 0.0
29/05:00pm 29.0 24.9 4.5 21 12.7 W 15 24 8 13 1019.4 1018.6 0.0
29/04:30pm 29.7 26.6 5.7 22 12.7 WNW 11 22 6 12 1019.5 1018.7 0.0
29/04:00pm 29.4 26.1 4.8 21 12.8 W 11 19 6 10 1019.4 1018.6 0.0
29/03:30pm 29.2 25.5 4.6 21 12.8 NW 13 19 7 10 1019.5 1018.7 0.0
29/03:00pm 29.2 25.4 6.0 23 12.3 WNW 15 26 8 14 1019.9 1019.1 0.0
29/02:30pm 28.6 24.7 5.5 23 12.1 NNW 15 26 8 14 1020.1 1019.3 0.0
29/02:00pm 27.8 26.0 8.1 29 10.7 SW 7 48 4 26 1020.6 1019.8 0.0
29/01:30pm 26.5 25.4 9.8 35 9.3 E 6 11 3 6 1021.0 1020.2 0.0
29/01:00pm 27.1 26.2 10.7 35 9.3 SE 6 11 3 6 1021.7 1020.8 0.0
29/12:30pm 26.1 26.0 12.2 42 8.1 SSW 4 7 2 4 1022.3 1021.5 0.0
29/12:00pm 23.9 23.4 10.6 43 7.4 WNW 4 11 2 6 1022.6 1021.8 0.0
29/11:30am 22.3 21.6 11.4 50 6.1 WNW 6 9 3 5 1022.9 1022.1 0.0
29/11:00am 21.0 20.4 12.2 57 5.0 WSW 7 11 4 6 1023.3 1022.5 0.0

Other Formats:

Comma delimited format used in spreadsheet applications
http://www.bom.gov.au/fwo/IDN60801/IDN60801.95758.axf

JavaScript Object Notation format (JSON) in row-major order
http://www.bom.gov.au/fwo/IDN60801/IDN60801.95758.json